createdAt,value
2023-03-03T00:00:26.390Z,5.88
2023-03-03T00:01:53.882Z,5.25
2023-03-03T00:03:17.835Z,4.77
2023-03-03T00:04:53.811Z,4.67
2023-03-03T00:06:38.798Z,5.64
2023-03-03T00:08:02.785Z,6.87
2023-03-03T00:09:36.747Z,7.82
2023-03-03T00:11:06.097Z,7.79
2023-03-03T00:12:30.279Z,7.15
2023-03-03T00:13:59.520Z,6.37
2023-03-03T00:15:21.252Z,5.74
2023-03-03T00:16:56.726Z,5.18
2023-03-03T00:18:18.276Z,4.64
2023-03-03T00:20:00.773Z,4.54
2023-03-03T00:21:37.434Z,5.54
2023-03-03T00:23:12.915Z,6.74
2023-03-03T00:24:57.646Z,7.75
2023-03-03T00:26:51.726Z,7.54
2023-03-03T00:28:25.726Z,6.71
2023-03-03T00:29:54.956Z,5.97
2023-03-03T00:31:19.198Z,5.35
2023-03-03T00:32:56.115Z,4.79
2023-03-03T00:34:42.343Z,4.44
2023-03-03T00:36:27.487Z,5.16
2023-03-03T00:38:04.377Z,6.50
2023-03-03T00:39:28.287Z,7.46
2023-03-03T00:41:14.860Z,7.72
2023-03-03T00:42:48.351Z,6.98
2023-03-03T00:44:33.127Z,6.19
2023-03-03T00:45:55.341Z,5.45
2023-03-03T00:47:41.765Z,4.82
2023-03-03T00:49:22.827Z,4.32
2023-03-03T00:50:47.339Z,4.69
2023-03-03T00:52:32.835Z,5.89
2023-03-03T00:54:25.092Z,7.21
2023-03-03T00:56:05.904Z,7.71
2023-03-03T00:57:39.645Z,7.02
2023-03-03T00:59:24.678Z,6.17
2023-03-03T01:00:58.698Z,5.40
2023-03-03T01:02:57.367Z,4.66
2023-03-03T01:04:49.568Z,4.26
2023-03-03T01:06:22.692Z,5.24
2023-03-03T01:08:08.825Z,6.49
2023-03-03T01:09:43.446Z,7.51
2023-03-03T01:11:31.726Z,7.43
2023-03-03T01:13:07.796Z,6.61
2023-03-03T01:15:02.711Z,5.68
2023-03-03T01:16:47.777Z,4.85
2023-03-03T01:18:28.863Z,4.27
2023-03-03T01:20:13.566Z,4.56
2023-03-03T01:21:56.046Z,5.69
2023-03-03T01:23:41.770Z,7.08
2023-03-03T01:25:15.783Z,7.57
2023-03-03T01:26:49.453Z,7.07
2023-03-03T01:28:15.771Z,6.25
2023-03-03T01:30:01.093Z,5.47
2023-03-03T01:31:34.898Z,4.76
2023-03-03T01:33:11.292Z,4.23
2023-03-03T01:34:52.091Z,3.94
2023-03-03T01:36:37.119Z,4.78
2023-03-03T01:38:10.366Z,5.97
2023-03-03T01:39:32.245Z,7.03
2023-03-03T01:40:56.648Z,7.28
2023-03-03T01:42:30.307Z,6.65
2023-03-03T01:44:15.922Z,5.81
2023-03-03T01:45:58.087Z,4.98
2023-03-03T01:47:43.409Z,4.25
2023-03-03T01:49:17.526Z,3.79
2023-03-03T01:50:51.283Z,4.22
2023-03-03T01:52:27.315Z,5.54
2023-03-03T01:54:12.880Z,6.73
2023-03-03T01:55:54.269Z,7.20
2023-03-03T01:57:27.687Z,6.54
2023-03-03T01:59:13.156Z,5.73
2023-03-03T02:00:47.529Z,5.00
2023-03-03T02:02:12.968Z,4.39
2023-03-03T02:04:01.648Z,3.86
2023-03-03T02:05:49.122Z,4.06
2023-03-03T02:07:34.097Z,5.34
2023-03-03T02:09:07.635Z,6.66
2023-03-03T02:11:01.280Z,7.19
2023-03-03T02:12:50.602Z,6.55
2023-03-03T02:14:26.024Z,5.64
2023-03-03T02:16:02.228Z,4.95
2023-03-03T02:17:47.361Z,4.38
2023-03-03T02:19:11.380Z,3.92
2023-03-03T02:20:56.789Z,4.03
2023-03-03T02:22:30.210Z,5.22
2023-03-03T02:24:24.684Z,6.44
2023-03-03T02:26:12.124Z,7.27
2023-03-03T02:28:06.669Z,6.69
2023-03-03T02:29:52.280Z,5.70
2023-03-03T02:31:45.847Z,4.90
2023-03-03T02:33:21.882Z,4.18
2023-03-03T02:34:50.915Z,3.71
2023-03-03T02:36:15.062Z,3.83
2023-03-03T02:40:01.803Z,6.57
2023-03-03T02:41:55.696Z,7.13
2023-03-03T02:43:43.565Z,6.43
2023-03-03T02:45:36.943Z,5.50
2023-03-03T02:47:12.636Z,4.64
2023-03-03T02:48:46.620Z,4.11
2023-03-03T02:50:15.838Z,3.70
2023-03-03T02:51:55.778Z,4.20
2023-03-03T02:53:31.965Z,5.45
2023-03-03T02:55:17.620Z,6.69
2023-03-03T02:56:53.276Z,6.97
2023-03-03T02:58:48.677Z,6.27
2023-03-03T03:00:22.038Z,5.23
2023-03-03T03:02:07.714Z,4.48
2023-03-03T03:03:38.055Z,3.86
2023-03-03T03:05:14.647Z,3.43
2023-03-03T03:06:51.028Z,3.97
2023-03-03T03:08:19.963Z,5.12
2023-03-03T03:09:55.814Z,6.23
2023-03-03T03:11:43.232Z,6.85
2023-03-03T03:13:37.656Z,6.21
2023-03-03T03:15:32.724Z,5.23
2023-03-03T03:17:13.899Z,4.41
2023-03-03T03:19:08.700Z,3.78
2023-03-03T03:20:50.227Z,3.80
2023-03-03T03:22:47.769Z,5.01
2023-03-03T03:24:20.817Z,6.47
2023-03-03T03:26:11.671Z,7.07
2023-03-03T03:27:59.296Z,6.48
2023-03-03T03:29:35.729Z,5.56
2023-03-03T03:31:10.684Z,4.88
2023-03-03T03:32:47.079Z,4.17
2023-03-03T03:34:41.652Z,3.64
2023-03-03T03:36:14.222Z,3.74
2023-03-03T03:38:01.770Z,4.84
2023-03-03T03:39:42.848Z,6.18
2023-03-03T03:41:27.995Z,7.11
2023-03-03T03:43:14.151Z,6.68
2023-03-03T03:44:59.511Z,5.74
2023-03-03T03:46:50.708Z,4.90
2023-03-03T03:48:19.963Z,4.17
2023-03-03T03:49:56.135Z,3.58
2023-03-03T03:51:42.260Z,3.54
2023-03-03T03:53:17.867Z,4.66
2023-03-03T03:54:43.204Z,5.71
2023-03-03T03:56:37.777Z,6.69
2023-03-03T03:58:32.669Z,6.57
2023-03-03T04:00:22.324Z,5.55
2023-03-03T04:02:07.431Z,4.66
2023-03-03T04:04:02.748Z,3.92
2023-03-03T04:05:36.177Z,3.38
2023-03-03T04:07:12.193Z,3.85
2023-03-03T04:08:54.180Z,4.88
2023-03-03T04:10:28.470Z,6.26
2023-03-03T04:12:02.903Z,6.79
2023-03-03T04:13:40.599Z,6.34
2023-03-03T04:15:25.705Z,5.41
2023-03-03T04:16:49.375Z,4.65
2023-03-03T04:18:26.035Z,4.00
2023-03-03T04:20:02.284Z,3.49
2023-03-03T04:21:44.009Z,3.66
2023-03-03T04:23:17.623Z,4.74
2023-03-03T04:25:03.120Z,6.07
2023-03-03T04:26:56.888Z,6.77
2023-03-03T04:28:30.771Z,6.11
2023-03-03T04:30:07.117Z,5.28
2023-03-03T04:31:40.930Z,4.49
2023-03-03T04:33:34.179Z,3.85
2023-03-03T04:35:27.832Z,3.28
2023-03-03T04:37:04.256Z,3.66
2023-03-03T04:38:46.807Z,4.81
2023-03-03T04:40:29.810Z,6.18
2023-03-03T04:42:15.835Z,6.72
2023-03-03T04:44:01.755Z,6.00
2023-03-03T04:45:43.572Z,5.04
2023-03-03T04:47:28.691Z,4.24
2023-03-03T04:49:14.219Z,3.56
2023-03-03T04:50:48.879Z,3.15
2023-03-03T04:52:21.888Z,3.69
2023-03-03T04:53:43.972Z,4.85
2023-03-03T04:55:17.499Z,5.87
2023-03-03T04:56:54.117Z,6.68
2023-03-03T04:58:36.822Z,6.20
2023-03-03T05:00:23.597Z,5.28
2023-03-03T05:02:09.118Z,4.37
2023-03-03T05:03:45.205Z,3.66
2023-03-03T05:05:19.268Z,3.19
2023-03-03T05:07:05.071Z,3.37
2023-03-03T05:08:50.606Z,4.60
2023-03-03T05:10:44.254Z,5.88
2023-03-03T05:12:37.826Z,6.55
2023-03-03T05:14:31.697Z,5.82
2023-03-03T05:16:05.844Z,4.81
2023-03-03T05:17:51.584Z,4.10
2023-03-03T05:19:44.181Z,3.46
2023-03-03T05:21:17.921Z,3.19
2023-03-03T05:23:05.025Z,4.16
2023-03-03T05:24:58.343Z,5.52
2023-03-03T05:26:31.948Z,6.57
2023-03-03T05:28:05.319Z,6.30
2023-03-03T05:29:50.389Z,5.46
2023-03-03T05:31:31.500Z,4.53
2023-03-03T05:33:16.705Z,3.76
2023-03-03T05:34:52.502Z,3.16
2023-03-03T05:36:34.022Z,3.44
2023-03-03T05:38:07.714Z,4.47
2023-03-03T05:40:01.217Z,5.79
2023-03-03T05:41:45.082Z,6.67
2023-03-03T05:43:39.684Z,6.18
2023-03-03T05:45:24.933Z,5.17
2023-03-03T05:47:10.002Z,4.34
2023-03-03T05:48:46.098Z,3.66
2023-03-03T05:50:35.455Z,3.23
2023-03-03T05:52:09.281Z,3.77
2023-03-03T05:54:02.889Z,5.10
2023-03-03T05:55:53.682Z,6.41
2023-03-03T05:57:46.950Z,6.63
2023-03-03T05:59:36.703Z,5.74
2023-03-03T06:01:22.069Z,4.80
2023-03-03T06:03:07.483Z,4.04
2023-03-03T06:05:01.775Z,3.42
2023-03-03T06:06:56.782Z,3.64
2023-03-03T06:08:32.736Z,5.02
2023-03-03T06:10:11.332Z,6.21
2023-03-03T06:12:04.748Z,6.76
2023-03-03T06:13:46.139Z,6.07
2023-03-03T06:15:27.179Z,5.20
2023-03-03T06:17:14.267Z,4.35
2023-03-03T06:19:08.554Z,3.68
2023-03-03T06:20:57.890Z,3.56
2023-03-03T06:22:39.620Z,4.58
2023-03-03T06:24:15.750Z,6.04
2023-03-03T06:26:10.500Z,6.92
2023-03-03T06:27:47.182Z,6.52
2023-03-03T06:29:40.596Z,5.68
2023-03-03T06:31:14.700Z,4.69
2023-03-03T06:32:59.844Z,4.00
2023-03-03T06:34:33.818Z,3.42
2023-03-03T06:36:07.375Z,3.70
2023-03-03T06:37:53.724Z,4.95
2023-03-03T06:39:35.718Z,6.12
2023-03-03T06:41:09.861Z,7.01
2023-03-03T06:43:03.838Z,6.63
2023-03-03T06:44:40.374Z,5.62
2023-03-03T06:46:25.454Z,4.79
2023-03-03T06:47:58.517Z,4.01
2023-03-03T06:49:30.309Z,3.51
2023-03-03T06:51:15.836Z,3.84
2023-03-03T06:52:38.244Z,4.91
2023-03-03T06:54:27.319Z,6.07
2023-03-03T06:56:14.850Z,6.99
2023-03-03T06:58:01.244Z,6.54
2023-03-03T06:59:38.100Z,5.61
2023-03-03T07:01:23.297Z,4.73
2023-03-03T07:02:56.976Z,3.99
2023-03-03T07:04:49.807Z,3.61
2023-03-03T07:06:26.976Z,4.43
2023-03-03T07:08:00.144Z,5.69
2023-03-03T07:09:45.617Z,6.70
2023-03-03T07:11:21.466Z,6.94
2023-03-03T07:13:07.187Z,6.17
2023-03-03T07:14:39.198Z,5.27
2023-03-03T07:16:15.115Z,4.51
2023-03-03T07:17:55.607Z,3.94
2023-03-03T07:19:43.718Z,3.87
2023-03-03T07:21:17.676Z,5.03
2023-03-03T07:23:11.544Z,6.20
2023-03-03T07:24:45.118Z,7.18
2023-03-03T07:26:26.511Z,6.84
2023-03-03T07:28:00.175Z,5.95
2023-03-03T07:29:34.311Z,5.12
2023-03-03T07:31:07.740Z,4.43
2023-03-03T07:32:59.167Z,3.88
2023-03-03T07:34:35.626Z,4.24
2023-03-03T07:36:16.765Z,5.39
2023-03-03T07:38:03.320Z,6.61
2023-03-03T07:39:35.278Z,7.27
2023-03-03T07:41:08.608Z,6.84
2023-03-03T07:42:44.559Z,5.97
2023-03-03T07:44:40.351Z,4.99
2023-03-03T07:46:02.937Z,4.23
2023-03-03T07:47:27.799Z,3.88
2023-03-03T07:49:13.109Z,4.55
2023-03-03T07:51:02.212Z,5.85
2023-03-03T07:52:52.686Z,7.01
2023-03-03T07:54:29.399Z,7.25
2023-03-03T07:56:11.007Z,6.52
2023-03-03T07:57:59.841Z,5.42
2023-03-03T07:59:34.581Z,4.51
2023-03-03T08:01:19.652Z,3.90
2023-03-03T08:03:09.379Z,3.94
2023-03-03T08:04:54.792Z,5.17
2023-03-03T08:06:38.252Z,6.34
2023-03-03T08:08:24.346Z,7.13
2023-03-03T08:10:10.175Z,6.63
2023-03-03T08:11:55.723Z,5.66
2023-03-03T08:13:31.786Z,4.75
2023-03-03T08:15:25.225Z,4.07
2023-03-03T08:17:11.563Z,3.86
2023-03-03T08:18:56.172Z,4.83
2023-03-03T08:20:47.353Z,6.23
2023-03-03T08:22:43.644Z,7.27
2023-03-03T08:24:38.573Z,6.91
2023-03-03T08:26:20.552Z,5.91
2023-03-03T08:28:06.265Z,5.03
2023-03-03T08:29:54.461Z,4.31
2023-03-03T08:31:48.532Z,3.82
2023-03-03T08:33:41.825Z,4.64
2023-03-03T08:35:31.101Z,6.08
2023-03-03T08:37:04.289Z,7.12
2023-03-03T08:38:54.605Z,7.11
2023-03-03T08:40:47.976Z,6.22
2023-03-03T08:42:35.496Z,5.21
2023-03-03T08:44:29.610Z,4.47
2023-03-03T08:46:14.998Z,3.97
2023-03-03T08:48:09.261Z,4.78
2023-03-03T08:49:54.644Z,6.23
2023-03-03T08:51:48.612Z,7.32
2023-03-03T08:53:42.602Z,7.10
2023-03-03T08:55:36.821Z,6.09
2023-03-03T08:57:22.529Z,5.08
2023-03-03T08:59:02.212Z,4.36
2023-03-03T09:00:51.150Z,3.76
2023-03-03T09:02:46.116Z,4.38
2023-03-03T09:04:21.949Z,5.71
2023-03-03T09:06:09.509Z,6.92
2023-03-03T09:07:55.666Z,7.09
2023-03-03T09:09:50.705Z,6.32
2023-03-03T09:11:45.740Z,5.39
2023-03-03T09:13:09.347Z,4.72
2023-03-03T09:14:31.550Z,4.27
2023-03-03T09:15:55.827Z,4.04
2023-03-03T09:17:17.895Z,4.63
2023-03-03T09:18:39.744Z,5.68
2023-03-03T09:20:02.836Z,6.74
2023-03-03T09:21:24.545Z,7.48
2023-03-03T09:22:46.604Z,7.34
2023-03-03T09:24:08.814Z,6.72
2023-03-03T09:25:42.370Z,6.03
2023-03-03T09:27:16.252Z,5.35
2023-03-03T09:29:02.249Z,4.72
2023-03-03T09:30:23.990Z,4.28
2023-03-03T09:32:02.181Z,4.28
2023-03-03T09:33:39.302Z,5.35
2023-03-03T09:35:11.668Z,6.53
2023-03-03T09:36:33.686Z,7.40
2023-03-03T09:38:05.680Z,7.26
2023-03-03T09:39:41.611Z,6.53
2023-03-03T09:41:15.366Z,5.78
2023-03-03T09:42:51.446Z,5.13
2023-03-03T09:44:28.959Z,4.64
2023-03-03T09:46:04.835Z,4.20
2023-03-03T09:47:59.685Z,4.47
2023-03-03T09:49:33.212Z,5.79
2023-03-03T09:51:09.323Z,7.12
2023-03-03T09:53:01.297Z,7.85
2023-03-03T09:54:56.623Z,7.24
2023-03-03T09:56:51.033Z,6.33
2023-03-03T09:58:31.659Z,5.56
2023-03-03T10:00:17.791Z,4.99
2023-03-03T10:01:42.284Z,4.51
2023-03-03T10:03:29.725Z,4.14
2023-03-03T10:05:16.601Z,4.78
2023-03-03T10:07:01.734Z,6.17
2023-03-03T10:08:42.941Z,7.37
2023-03-03T10:10:07.813Z,7.42
2023-03-03T10:11:52.573Z,6.86
2023-03-03T10:13:34.384Z,6.04
2023-03-03T10:15:19.943Z,5.40
2023-03-03T10:17:04.790Z,4.84
2023-03-03T10:18:58.432Z,4.34
2023-03-03T10:20:37.480Z,4.30
2023-03-03T10:22:21.700Z,5.50
2023-03-03T10:24:07.616Z,6.83
2023-03-03T10:26:01.255Z,7.80
2023-03-03T10:27:34.762Z,7.40
2023-03-03T10:29:08.620Z,6.66
2023-03-03T10:30:54.573Z,5.95
2023-03-03T10:32:45.516Z,5.19
2023-03-03T10:34:30.781Z,4.65
2023-03-03T10:36:13.247Z,4.20
2023-03-03T10:37:35.643Z,4.23
2023-03-03T10:39:11.657Z,5.25
2023-03-03T10:41:00.376Z,6.57
2023-03-03T10:42:46.541Z,7.60
2023-03-03T10:44:32.668Z,7.25
2023-03-03T10:46:18.202Z,6.41
2023-03-03T10:47:53.061Z,5.68
2023-03-03T10:49:46.736Z,4.98
2023-03-03T10:51:27.992Z,4.39
2023-03-03T10:53:02.139Z,4.06
2023-03-03T10:54:35.938Z,4.65
2023-03-03T10:56:17.286Z,6.05
2023-03-03T10:58:06.196Z,7.32
2023-03-03T10:59:35.753Z,7.60
2023-03-03T11:01:12.428Z,6.97
2023-03-03T11:02:59.808Z,6.21
2023-03-03T11:04:33.410Z,5.56
2023-03-03T11:06:07.801Z,5.03
2023-03-03T11:07:59.707Z,4.55
2023-03-03T11:09:42.194Z,4.58
2023-03-03T11:11:17.878Z,5.74
2023-03-03T11:13:06.540Z,7.02
2023-03-03T11:14:53.431Z,7.79
2023-03-03T11:16:37.373Z,7.31
2023-03-03T11:18:25.789Z,6.40
2023-03-03T11:20:11.616Z,5.61
2023-03-03T11:21:47.016Z,5.05
2023-03-03T11:23:18.278Z,4.56
2023-03-03T11:25:03.572Z,4.20
2023-03-03T11:26:57.517Z,4.69
2023-03-03T11:28:31.199Z,6.19
2023-03-03T11:30:16.253Z,7.33
2023-03-03T11:32:02.316Z,7.59
2023-03-03T11:33:57.577Z,6.87
2023-03-03T11:35:34.117Z,6.04
2023-03-03T11:37:07.705Z,5.27
2023-03-03T11:38:53.569Z,4.75
2023-03-03T11:40:27.611Z,4.24
2023-03-03T11:42:09.713Z,4.34
2023-03-03T11:43:43.947Z,5.55
2023-03-03T11:45:13.566Z,6.61
2023-03-03T11:46:45.754Z,7.55
2023-03-03T11:48:08.997Z,7.47
2023-03-03T11:49:54.172Z,6.78
2023-03-03T11:51:31.501Z,5.94
2023-03-03T11:53:16.639Z,5.29
2023-03-03T11:54:50.748Z,4.74
2023-03-03T11:56:27.023Z,4.28
2023-03-03T11:58:08.890Z,4.76
2023-03-03T11:59:50.415Z,5.87
2023-03-03T12:01:12.785Z,7.14
2023-03-03T12:03:06.440Z,7.67
2023-03-03T12:04:42.454Z,7.10
2023-03-03T12:06:06.376Z,6.33
2023-03-03T12:07:48.883Z,5.62
2023-03-03T12:09:30.253Z,4.97
2023-03-03T12:11:15.288Z,4.49
2023-03-03T12:12:49.625Z,4.71
2023-03-03T12:14:35.070Z,5.94
2023-03-03T12:16:16.219Z,7.18
2023-03-03T12:17:50.716Z,7.77
2023-03-03T12:19:27.670Z,7.21
2023-03-03T12:21:14.156Z,6.37
2023-03-03T12:23:06.474Z,5.57
2023-03-03T12:24:41.432Z,4.77
2023-03-03T12:26:26.726Z,4.34
2023-03-03T12:28:14.192Z,4.90
2023-03-03T12:29:38.854Z,6.15
2023-03-03T12:31:14.774Z,7.30
2023-03-03T12:33:09.595Z,7.81
2023-03-03T12:37:03.686Z,6.12
2023-03-03T12:38:57.260Z,5.29
2023-03-03T12:40:21.818Z,4.68
2023-03-03T12:42:11.016Z,4.36
2023-03-03T12:43:51.823Z,5.26
2023-03-03T12:45:40.152Z,6.56
2023-03-03T12:47:30.306Z,7.73
2023-03-03T12:49:15.508Z,7.70
2023-03-03T12:51:02.211Z,6.84
2023-03-03T12:52:43.190Z,5.96
2023-03-03T12:54:19.039Z,5.23
2023-03-03T12:56:04.007Z,4.57
2023-03-03T12:57:49.330Z,4.33
2023-03-03T12:59:43.396Z,5.34
2023-03-03T13:01:16.788Z,6.80
2023-03-03T13:02:59.119Z,7.70
2023-03-03T13:04:23.253Z,7.58
2023-03-03T13:06:04.017Z,6.91
2023-03-03T13:07:38.208Z,5.94
2023-03-03T13:09:24.077Z,5.23
2023-03-03T13:11:10.241Z,4.58
2023-03-03T13:12:55.960Z,4.44
2023-03-03T13:14:17.810Z,5.37
2023-03-03T13:16:06.137Z,6.52
2023-03-03T13:17:49.508Z,7.59
2023-03-03T13:19:25.574Z,7.41
2023-03-03T13:21:11.637Z,6.59
2023-03-03T13:22:57.716Z,5.65
2023-03-03T13:24:43.999Z,4.84
2023-03-03T13:26:30.835Z,4.25
2023-03-03T13:28:08.644Z,4.67
2023-03-03T13:30:58.360Z,6.70
2023-03-03T13:32:53.290Z,7.53
2023-03-03T13:34:46.537Z,7.06
2023-03-03T13:36:40.075Z,6.00
2023-03-03T13:38:26.197Z,5.02
2023-03-03T13:40:08.530Z,4.27
2023-03-03T13:41:50.297Z,4.23
2023-03-03T13:43:26.514Z,5.14
2023-03-03T13:45:12.350Z,6.38
2023-03-03T13:47:06.131Z,7.31
2023-03-03T13:48:49.968Z,7.08
2023-03-03T13:50:35.700Z,6.14
2023-03-03T13:52:24.620Z,5.19
2023-03-03T13:53:58.218Z,4.36
2023-03-03T13:55:21.624Z,4.07
2023-03-03T13:57:03.892Z,4.65
2023-03-03T13:58:41.036Z,5.88
2023-03-03T14:00:05.518Z,6.94
2023-03-03T14:01:41.483Z,7.61
2023-03-03T14:03:03.412Z,7.30
2023-03-03T14:04:33.171Z,6.47
2023-03-03T14:05:57.384Z,5.71
2023-03-03T14:07:52.565Z,4.91
2023-03-03T14:09:42.591Z,4.19
2023-03-03T14:11:15.991Z,4.61
2023-03-03T14:12:57.889Z,5.54
2023-03-03T14:14:33.512Z,6.81
2023-03-03T14:16:07.194Z,7.51
2023-03-03T14:17:41.072Z,7.24
2023-03-03T14:19:27.639Z,6.41
2023-03-03T14:21:13.398Z,5.45
2023-03-03T14:23:01.881Z,4.62
2023-03-03T14:24:47.593Z,4.06
2023-03-03T14:26:23.515Z,4.74
2023-03-03T14:28:09.282Z,5.85
2023-03-03T14:30:04.670Z,6.93
2023-03-03T14:31:47.205Z,7.05
2023-03-03T14:33:41.005Z,6.13
2023-03-03T14:35:26.437Z,5.05
2023-03-03T14:37:12.262Z,4.19
2023-03-03T14:38:58.869Z,3.77
2023-03-03T14:40:53.710Z,4.64
2023-03-03T14:42:36.600Z,5.84
2023-03-03T14:44:31.579Z,6.98
2023-03-03T14:46:16.637Z,6.94
2023-03-03T14:47:51.487Z,6.09
2023-03-03T14:49:24.986Z,5.07
2023-03-03T14:51:08.569Z,4.40
2023-03-03T14:53:02.466Z,3.78
2023-03-03T14:54:48.387Z,4.59
2023-03-03T14:56:35.526Z,5.89
2023-03-03T14:58:22.628Z,7.04
2023-03-03T15:00:07.989Z,7.28
2023-03-03T15:01:44.654Z,6.43
2023-03-03T15:03:18.537Z,5.63
2023-03-03T15:04:52.000Z,4.71
2023-03-03T15:06:25.704Z,4.09
2023-03-03T15:08:10.526Z,4.37
2023-03-03T15:09:55.651Z,5.39
2023-03-03T15:11:37.040Z,6.71
2023-03-03T15:13:11.120Z,7.21
2023-03-03T15:14:56.746Z,6.59
2023-03-03T15:16:30.316Z,5.56
2023-03-03T15:18:15.204Z,4.70
2023-03-03T15:20:06.627Z,3.89
2023-03-03T15:21:40.079Z,3.67
2023-03-03T15:23:01.928Z,4.44
2023-03-03T15:24:56.617Z,5.61
2023-03-03T15:26:20.926Z,6.75
2023-03-03T15:28:06.252Z,7.09
2023-03-03T15:29:51.567Z,6.40
2023-03-03T15:31:45.125Z,5.28
2023-03-03T15:33:30.512Z,4.28
2023-03-03T15:35:14.332Z,3.57
2023-03-03T15:37:00.542Z,3.55
2023-03-03T15:38:46.576Z,4.73
2023-03-03T15:40:28.565Z,6.01
2023-03-03T15:42:02.312Z,6.83
2023-03-03T15:43:48.573Z,6.62
2023-03-03T15:45:41.898Z,5.69
2023-03-03T15:47:35.504Z,4.68
2023-03-03T15:49:16.178Z,3.85
2023-03-03T15:50:50.610Z,3.70
2023-03-03T15:52:33.339Z,4.48
2023-03-03T15:54:26.926Z,5.86
2023-03-03T15:56:11.926Z,6.97
2023-03-03T15:57:50.117Z,6.92
2023-03-03T15:59:35.671Z,5.97
2023-03-03T16:01:22.456Z,4.93
2023-03-03T16:03:07.821Z,4.08
2023-03-03T16:04:51.564Z,3.49
2023-03-03T16:06:46.619Z,3.89
2023-03-03T16:08:20.230Z,5.07
2023-03-03T16:09:53.950Z,6.10
2023-03-03T16:11:28.537Z,6.87
2023-03-03T16:13:13.985Z,6.44
2023-03-03T16:14:59.641Z,5.42
2023-03-03T16:16:28.923Z,4.55
2023-03-03T16:18:13.842Z,3.76
2023-03-03T16:19:47.940Z,3.65
2023-03-03T16:21:17.824Z,4.44
2023-03-03T16:23:09.151Z,5.69
2023-03-03T16:24:45.902Z,6.77
2023-03-03T16:26:10.005Z,6.84
2023-03-03T16:27:51.069Z,6.12
2023-03-03T16:29:44.523Z,5.18
2023-03-03T16:31:18.327Z,4.34
2023-03-03T16:33:04.581Z,3.59
2023-03-03T16:34:43.087Z,3.49
2023-03-03T16:36:04.721Z,4.36
2023-03-03T16:37:50.566Z,5.41
2023-03-03T16:39:31.507Z,6.59
2023-03-03T16:41:16.842Z,6.68
2023-03-03T16:42:52.605Z,5.82
2023-03-03T16:44:24.417Z,5.03
2023-03-03T16:46:06.284Z,4.31
2023-03-03T16:47:40.653Z,3.57
2023-03-03T16:49:14.197Z,3.59
2023-03-03T16:50:56.132Z,4.39
2023-03-03T16:52:31.371Z,5.78
2023-03-03T16:54:04.826Z,6.63
2023-03-03T16:55:38.497Z,6.49
2023-03-03T16:57:02.777Z,5.77
2023-03-03T16:58:58.596Z,4.85
2023-03-03T17:00:53.574Z,3.89
2023-03-03T17:02:27.261Z,3.14
2023-03-03T17:04:03.530Z,3.19
2023-03-03T17:05:45.049Z,4.28
2023-03-03T17:07:11.333Z,5.39
2023-03-03T17:11:20.618Z,5.52
2023-03-03T17:13:05.414Z,4.56
2023-03-03T17:14:27.654Z,3.81
2023-03-03T17:16:08.500Z,3.19
2023-03-03T17:20:19.455Z,4.57
2023-03-03T17:21:43.550Z,5.60
2023-03-03T17:23:28.855Z,6.45
2023-03-03T17:25:09.499Z,6.13
2023-03-03T17:26:53.988Z,5.27
2023-03-03T17:28:29.172Z,4.37
2023-03-03T17:30:05.760Z,3.59
2023-03-03T17:31:39.267Z,3.06
2023-03-03T17:33:24.595Z,3.40
2023-03-03T17:35:09.408Z,4.63
2023-03-03T17:36:57.489Z,5.88
2023-03-03T17:38:45.924Z,6.35
2023-03-03T17:40:39.578Z,5.58
2023-03-03T17:42:24.724Z,4.52
2023-03-03T17:44:10.590Z,3.75
2023-03-03T17:45:59.264Z,3.02
2023-03-03T17:47:41.070Z,3.17
2023-03-03T17:49:21.704Z,4.43
2023-03-03T17:51:05.276Z,5.57
2023-03-03T17:52:31.575Z,6.07
2023-03-03T17:54:07.567Z,5.57
2023-03-03T17:55:36.656Z,4.64
2023-03-03T17:57:03.112Z,3.91
2023-03-03T17:58:48.864Z,3.21
2023-03-03T18:00:29.151Z,2.63
2023-03-03T18:01:58.510Z,3.09
2023-03-03T18:03:34.251Z,4.07
2023-03-03T18:05:08.042Z,5.28
2023-03-03T18:06:44.274Z,6.14
2023-03-03T18:08:30.498Z,5.84
2023-03-03T18:10:00.307Z,4.90
2023-03-03T18:11:22.128Z,4.15
2023-03-03T18:13:03.081Z,3.40
2023-03-03T18:14:37.020Z,2.79
2023-03-03T18:16:12.398Z,2.53
2023-03-03T18:18:07.628Z,3.46
2023-03-03T18:19:58.569Z,4.81
2023-03-03T18:21:50.573Z,5.87
2023-03-03T18:23:34.349Z,5.48
2023-03-03T18:25:07.637Z,4.52
2023-03-03T18:26:56.443Z,3.71
2023-03-03T18:28:18.686Z,3.00
2023-03-03T18:30:03.791Z,2.51
2023-03-03T18:31:54.272Z,3.08
2023-03-03T18:33:26.439Z,4.42
2023-03-03T18:35:03.302Z,5.45
2023-03-03T18:36:53.612Z,6.15
2023-03-03T18:38:34.864Z,5.46
2023-03-03T18:40:08.596Z,4.53
2023-03-03T18:41:55.201Z,3.73
2023-03-03T18:43:28.675Z,2.99
2023-03-03T18:44:55.067Z,2.60
2023-03-03T18:46:19.185Z,3.07
2023-03-03T18:48:04.077Z,4.22
2023-03-03T18:49:25.976Z,5.37
2023-03-03T18:51:01.634Z,6.16
2023-03-03T18:52:43.564Z,5.94
2023-03-03T18:54:17.238Z,5.10
2023-03-03T18:55:46.958Z,4.29
2023-03-03T18:57:11.171Z,3.64
2023-03-03T18:58:44.983Z,3.03
2023-03-03T19:00:26.657Z,2.91
2023-03-03T19:02:04.418Z,3.82
2023-03-03T19:03:45.504Z,5.21
2023-03-03T19:05:07.469Z,6.16
2023-03-03T19:06:43.663Z,6.26
2023-03-03T19:08:28.900Z,5.44
2023-03-03T19:10:14.469Z,4.48
2023-03-03T19:11:56.852Z,3.69
2023-03-03T19:13:33.581Z,3.08
2023-03-03T19:15:06.760Z,3.06
2023-03-03T19:16:52.446Z,4.16
2023-03-03T19:18:21.370Z,5.43
2023-03-03T19:20:06.421Z,6.34
2023-03-03T19:21:53.133Z,6.15
2023-03-03T19:23:22.194Z,5.28
2023-03-03T19:25:06.296Z,4.52
2023-03-03T19:26:52.040Z,3.66
2023-03-03T19:28:46.654Z,3.03
2023-03-03T19:30:23.890Z,3.42
2023-03-03T19:31:59.831Z,4.64
2023-03-03T19:33:57.105Z,5.82
2023-03-03T19:35:40.690Z,6.49
2023-03-03T19:37:26.417Z,5.82
2023-03-03T19:39:00.208Z,4.87
2023-03-03T19:40:58.218Z,4.10
2023-03-03T19:42:34.225Z,3.28
2023-03-03T19:44:19.296Z,3.09
2023-03-03T19:46:04.457Z,4.05
2023-03-03T19:47:38.177Z,5.35
2023-03-03T19:49:11.742Z,6.25
2023-03-03T19:50:54.529Z,6.54
2023-03-03T19:52:38.040Z,5.73
2023-03-03T19:54:23.320Z,4.77
2023-03-03T19:56:08.029Z,4.00
2023-03-03T19:57:56.514Z,3.24
2023-03-03T19:59:28.491Z,3.44
2023-03-03T20:01:13.673Z,4.50
2023-03-03T20:02:59.497Z,5.77
2023-03-03T20:04:54.584Z,6.61
2023-03-03T20:06:40.354Z,6.09
2023-03-03T20:08:16.713Z,5.12
2023-03-03T20:09:53.339Z,4.39
2023-03-03T20:11:38.534Z,3.64
2023-03-03T20:13:12.106Z,3.21
2023-03-03T20:14:57.840Z,3.93
2023-03-03T20:16:42.668Z,5.21
2023-03-03T20:18:27.288Z,6.30
2023-03-03T20:19:58.869Z,6.60
2023-03-03T20:21:33.094Z,5.89
2023-03-03T20:23:18.077Z,5.00
2023-03-03T20:24:51.993Z,4.18
2023-03-03T20:26:35.576Z,3.50
2023-03-03T20:28:30.572Z,3.36
2023-03-03T20:30:11.339Z,4.56
2023-03-03T20:31:58.972Z,5.75
2023-03-03T20:33:48.258Z,6.57
2023-03-03T20:35:25.560Z,6.11
2023-03-03T20:37:06.402Z,5.12
2023-03-03T20:38:42.319Z,4.24
2023-03-03T20:40:27.445Z,3.54
2023-03-03T20:42:12.203Z,3.20
2023-03-03T20:43:45.792Z,3.97
2023-03-03T20:45:21.301Z,5.24
2023-03-03T20:47:01.913Z,6.20
2023-03-03T20:48:56.529Z,6.43
2023-03-03T20:50:37.574Z,5.51
2023-03-03T20:52:10.891Z,4.59
2023-03-03T20:53:47.564Z,3.90
2023-03-03T20:55:41.142Z,3.23
2023-03-03T20:57:05.300Z,3.57
2023-03-03T20:58:29.575Z,4.56
2023-03-03T20:59:53.563Z,5.58
2023-03-03T21:01:30.542Z,6.50
2023-03-03T21:03:06.205Z,6.57
2023-03-03T21:04:30.735Z,5.79
2023-03-03T21:06:15.675Z,4.89
2023-03-03T21:08:09.171Z,3.99
2023-03-03T21:10:01.444Z,3.23
2023-03-03T21:11:56.564Z,3.54
2023-03-03T21:13:37.169Z,4.84
2023-03-03T21:15:12.696Z,5.94
2023-03-03T21:16:53.957Z,6.65
2023-03-03T21:18:30.035Z,6.15
2023-03-03T21:20:10.763Z,5.27
2023-03-03T21:22:00.823Z,4.39
2023-03-03T21:23:47.057Z,3.57
2023-03-03T21:25:20.438Z,3.25
2023-03-03T21:26:51.919Z,3.91
2023-03-03T21:28:27.349Z,5.00
2023-03-03T21:30:00.611Z,6.06
2023-03-03T21:31:43.551Z,6.59
2023-03-03T21:33:37.051Z,5.88
2023-03-03T21:35:10.751Z,4.80
2023-03-03T21:36:44.522Z,4.08
2023-03-03T21:38:20.575Z,3.33
2023-03-03T21:40:05.701Z,3.18
2023-03-03T21:41:51.013Z,4.20
2023-03-03T21:43:31.776Z,5.46
2023-03-03T21:45:01.023Z,6.31
2023-03-03T21:46:34.624Z,6.42
2023-03-03T21:48:00.677Z,5.77
2023-03-03T21:49:47.739Z,4.81
2023-03-03T21:51:28.820Z,3.92
2023-03-03T21:52:58.103Z,3.25
2023-03-03T21:54:24.815Z,3.15
2023-03-03T21:56:09.607Z,4.03
2023-03-03T21:57:43.341Z,5.33
2023-03-03T21:59:32.559Z,6.25
2023-03-03T22:01:17.638Z,6.30
2023-03-03T22:02:58.916Z,5.40
2023-03-03T22:04:44.112Z,4.48
2023-03-03T22:06:07.916Z,3.74
2023-03-03T22:07:44.548Z,3.16
2023-03-03T22:09:17.889Z,3.28
2023-03-03T22:11:05.630Z,4.42
2023-03-03T22:12:47.188Z,5.69
2023-03-03T22:14:22.842Z,6.45
2023-03-03T22:15:58.633Z,6.05
2023-03-03T22:17:33.061Z,5.26
2023-03-03T22:19:18.288Z,4.26
2023-03-03T22:21:03.271Z,3.45
2023-03-03T22:22:25.446Z,2.98
2023-03-03T22:24:02.415Z,3.49
2023-03-03T22:25:47.914Z,4.66
2023-03-03T22:27:28.905Z,5.77
2023-03-03T22:29:02.342Z,6.38
2023-03-03T22:30:49.856Z,5.84